Time;durP1;ratioP1;P1;durP2;ratioP2;P2;SDS_P1;SDS_P2;PMS_P1;PMS_P2;Temp;Humidity;BMP_temperature;BMP_pressure;BME280_temperature;BME280_humidity;BME280_pressure;Samples;Min_cycle;Max_cycle;Signal;HPM_P1;HPM_P2
2021/03/28 00:00:52;;;;;;;;;;;27.10;21.10;;;;;;5041387;28;19912;-71
2021/03/28 00:03:20;;;;;;;;;;;27.40;21.00;;;;;;5059821;28;20238;-71
2021/03/28 00:05:46;;;;;;;;;;;27.30;21.10;;;;;;5041796;28;19905;-71
2021/03/28 00:08:24;;;;;;;;;;;27.00;21.10;;;;;;5059446;28;19905;-71
2021/03/28 00:10:52;;;;;;;;;;;27.10;21.20;;;;;;5059268;28;19915;-70
2021/03/28 00:13:28;;;;;;;;;;;27.00;21.30;;;;;;5041809;28;19966;-71
2021/03/28 00:15:58;;;;;;;;;;;27.10;20.90;;;;;;5057042;28;19987;-70
2021/03/28 00:18:27;;;;;;;;;;;27.20;20.90;;;;;;5057476;28;19924;-70
2021/03/28 00:21:15;;;;;;;;;;;26.80;21.40;;;;;;5057159;28;19951;-70
2021/03/28 00:23:49;;;;;;;;;;;26.90;22.30;;;;;;5058802;28;19959;-70
2021/03/28 00:26:34;;;;;;;;;;;26.90;22.00;;;;;;5057846;28;19912;-70
2021/03/28 00:29:09;;;;;;;;;;;27.00;21.90;;;;;;5057906;28;19908;-70
2021/03/28 00:31:39;;;;;;;;;;;27.00;22.00;;;;;;5057503;28;19948;-70
2021/03/28 00:34:15;;;;;;;;;;;26.90;21.40;;;;;;5038520;28;19909;-70
2021/03/28 00:36:46;;;;;;;;;;;27.10;21.00;;;;;;5056272;28;19912;-69
2021/03/28 00:39:16;;;;;;;;;;;26.90;21.30;;;;;;5049629;28;19912;-70
2021/03/28 00:41:46;;;;;;;;;;;26.80;20.90;;;;;;5058017;28;19959;-70
2021/03/28 00:44:15;;;;;;;;;;;26.60;21.40;;;;;;5057563;28;19936;-70
2021/03/28 00:46:46;;;;;;;;;;;26.60;21.10;;;;;;5056792;28;19956;-70
2021/03/28 00:49:33;;;;;;;;;;;26.40;21.90;;;;;;5057589;28;19904;-70
2021/03/28 00:52:02;;;;;;;;;;;26.40;23.20;;;;;;5058053;28;19905;-70
2021/03/28 00:54:47;;;;;;;;;;;26.20;21.80;;;;;;5040070;28;19905;-70
2021/03/28 00:57:20;;;;;;;;;;;26.20;23.20;;;;;;5057703;28;19954;-70
2021/03/28 01:00:11;;;;;;;;;;;26.20;21.90;;;;;;5057575;28;19949;-70
2021/03/28 01:02:42;;;;;;;;;;;26.10;23.00;;;;;;5050985;28;19909;-70
2021/03/28 01:05:13;;;;;;;;;;;26.20;24.20;;;;;;5049027;28;19920;-70
2021/03/28 01:07:48;;;;;;;;;;;26.40;23.30;;;;;;5051750;28;19913;-69
2021/03/28 01:10:33;;;;;;;;;;;26.50;22.40;;;;;;5037226;28;20349;-70
2021/03/28 01:13:17;;;;;;;;;;;26.40;23.30;;;;;;5056187;28;19955;-71
2021/03/28 01:16:01;;;;;;;;;;;26.40;21.70;;;;;;5052958;28;20392;-72
2021/03/28 01:18:45;;;;;;;;;;;26.40;21.80;;;;;;5057442;28;19966;-73
2021/03/28 01:21:21;;;;;;;;;;;26.20;23.90;;;;;;5055440;28;19928;-71
2021/03/28 01:23:58;;;;;;;;;;;26.00;26.60;;;;;;5059044;28;19919;-73
2021/03/28 01:26:37;;;;;;;;;;;25.90;27.40;;;;;;5050816;28;19975;-70
2021/03/28 01:29:17;;;;;;;;;;;25.70;27.30;;;;;;5051332;28;20015;-70
2021/03/28 01:31:54;;;;;;;;;;;25.70;27.70;;;;;;5045636;28;19948;-70
2021/03/28 01:34:27;;;;;;;;;;;25.40;28.80;;;;;;5053888;28;19928;-70
2021/03/28 01:36:55;;;;;;;;;;;25.30;28.90;;;;;;5053218;28;19970;-70
2021/03/28 01:39:24;;;;;;;;;;;25.30;28.60;;;;;;5055594;28;19905;-70
2021/03/28 01:41:50;;;;;;;;;;;24.90;26.80;;;;;;5054739;28;19908;-72
2021/03/28 01:44:43;;;;;;;;;;;24.80;27.30;;;;;;5050911;28;19915;-70
2021/03/28 01:47:18;;;;;;;;;;;24.70;25.00;;;;;;5053188;28;19959;-70
2021/03/28 01:50:06;;;;;;;;;;;24.60;25.40;;;;;;5051675;28;19908;-70
2021/03/28 01:52:39;;;;;;;;;;;24.50;28.40;;;;;;5034163;28;19908;-70
2021/03/28 01:55:23;;;;;;;;;;;24.40;28.80;;;;;;5054619;28;19913;-70
2021/03/28 01:57:49;;;;;;;;;;;24.30;29.40;;;;;;5045931;28;19905;-70
2021/03/28 02:00:15;;;;;;;;;;;24.20;28.90;;;;;;5051102;28;20407;-70
2021/03/28 02:02:54;;;;;;;;;;;24.10;28.90;;;;;;5043979;28;19908;-70
2021/03/28 02:05:41;;;;;;;;;;;24.10;28.50;;;;;;5032560;28;19917;-70
2021/03/28 02:08:25;;;;;;;;;;;23.90;28.60;;;;;;5022886;28;20346;-70
2021/03/28 02:11:03;;;;;;;;;;;23.70;28.50;;;;;;5056076;28;19915;-70
2021/03/28 02:13:38;;;;;;;;;;;23.50;28.60;;;;;;5044990;28;19919;-71
2021/03/28 02:16:23;;;;;;;;;;;23.30;29.90;;;;;;5050714;28;19920;-71
2021/03/28 02:19:07;;;;;;;;;;;23.20;29.70;;;;;;5037941;28;19904;-71
2021/03/28 02:21:42;;;;;;;;;;;22.90;29.90;;;;;;5051635;28;19917;-71
2021/03/28 02:24:08;;;;;;;;;;;22.70;29.60;;;;;;5056292;28;19908;-71
2021/03/28 02:26:46;;;;;;;;;;;22.60;29.70;;;;;;5054594;28;19923;-71
2021/03/28 02:29:20;;;;;;;;;;;22.50;29.30;;;;;;5055120;28;19909;-71
2021/03/28 02:32:05;;;;;;;;;;;22.30;29.10;;;;;;5036962;28;19916;-71
2021/03/28 02:34:41;;;;;;;;;;;22.20;29.10;;;;;;5038775;28;19983;-72
2021/03/28 02:37:17;;;;;;;;;;;22.10;29.20;;;;;;5054283;28;19920;-72
2021/03/28 02:40:04;;;;;;;;;;;22.10;29.40;;;;;;5052191;28;20322;-71
2021/03/28 02:42:33;;;;;;;;;;;22.00;29.70;;;;;;5053645;28;19912;-71
2021/03/28 02:45:02;;;;;;;;;;;21.80;29.90;;;;;;5036082;28;20000;-72
2021/03/28 02:47:46;;;;;;;;;;;21.70;29.90;;;;;;5053951;28;20223;-71
2021/03/28 02:50:31;;;;;;;;;;;21.60;29.80;;;;;;5051252;28;19923;-71
2021/03/28 02:52:57;;;;;;;;;;;21.50;29.80;;;;;;5055625;28;19908;-71
2021/03/28 02:55:40;;;;;;;;;;;21.50;30.80;;;;;;5047961;28;19909;-72
2021/03/28 02:58:30;;;;;;;;;;;21.60;31.20;;;;;;5050686;28;19933;-71
2021/03/28 03:01:21;;;;;;;;;;;21.60;31.60;;;;;;5027843;28;19954;-72
2021/03/28 03:04:13;;;;;;;;;;;21.20;31.20;;;;;;5047607;28;19915;-73
2021/03/28 03:06:51;;;;;;;;;;;21.00;31.60;;;;;;5024857;28;20318;-72
2021/03/28 03:09:39;;;;;;;;;;;20.80;31.90;;;;;;5053094;28;19908;-73
2021/03/28 03:12:24;;;;;;;;;;;20.60;31.70;;;;;;5038821;28;19924;-73
2021/03/28 03:14:56;;;;;;;;;;;20.50;32.40;;;;;;5047014;28;19920;-71
2021/03/28 03:17:36;;;;;;;;;;;20.50;33.50;;;;;;5053468;28;20007;-72
2021/03/28 03:20:17;;;;;;;;;;;20.50;33.20;;;;;;5054644;28;19956;-72
2021/03/28 03:22:46;;;;;;;;;;;20.40;32.90;;;;;;5052705;28;19909;-71
2021/03/28 03:25:45;;;;;;;;;;;20.20;32.70;;;;;;5052489;28;19917;-72
2021/03/28 03:28:14;;;;;;;;;;;20.10;32.80;;;;;;5052294;28;19952;-72
2021/03/28 03:30:49;;;;;;;;;;;20.00;33.00;;;;;;5037994;28;19909;-72
2021/03/28 03:33:33;;;;;;;;;;;20.00;33.50;;;;;;5056003;28;19966;-72
2021/03/28 03:36:02;;;;;;;;;;;20.00;33.80;;;;;;5053269;28;20342;-71
2021/03/28 03:38:37;;;;;;;;;;;20.00;34.50;;;;;;5052730;28;20292;-72
2021/03/28 03:41:12;;;;;;;;;;;19.90;34.30;;;;;;5051099;28;19920;-72
2021/03/28 03:43:44;;;;;;;;;;;19.80;34.80;;;;;;5055545;28;20325;-72
2021/03/28 03:46:29;;;;;;;;;;;19.60;34.40;;;;;;5054396;28;19935;-71
2021/03/28 03:49:13;;;;;;;;;;;19.40;35.60;;;;;;5051292;28;20386;-72
2021/03/28 03:51:45;;;;;;;;;;;19.30;35.40;;;;;;5054582;28;19936;-72
2021/03/28 03:54:13;;;;;;;;;;;19.20;36.20;;;;;;5056509;28;19962;-72
2021/03/28 03:56:48;;;;;;;;;;;19.10;36.80;;;;;;5059035;28;20050;-71
2021/03/28 03:59:33;;;;;;;;;;;19.10;37.50;;;;;;5058941;28;19905;-71
2021/03/28 04:02:25;;;;;;;;;;;18.90;37.00;;;;;;5057394;28;19913;-72
2021/03/28 04:04:54;;;;;;;;;;;18.80;37.80;;;;;;5051472;28;19913;-72
2021/03/28 04:07:43;;;;;;;;;;;18.60;36.90;;;;;;5056902;28;19924;-72
2021/03/28 04:10:12;;;;;;;;;;;18.40;36.70;;;;;;5054386;28;20003;-72
2021/03/28 04:12:38;;;;;;;;;;;18.20;36.10;;;;;;5055994;28;19909;-72
2021/03/28 04:15:13;;;;;;;;;;;18.10;36.40;;;;;;5058207;28;20054;-72
2021/03/28 04:17:57;;;;;;;;;;;18.00;35.80;;;;;;5038819;28;19951;-72
2021/03/28 04:20:42;;;;;;;;;;;17.90;36.20;;;;;;5058698;28;19905;-72
2021/03/28 04:23:17;;;;;;;;;;;17.80;35.90;;;;;;5058602;28;19905;-72
2021/03/28 04:25:46;;;;;;;;;;;17.60;36.90;;;;;;5058633;28;19932;-72
2021/03/28 04:28:24;;;;;;;;;;;17.50;36.00;;;;;;5057975;28;19905;-72
2021/03/28 04:30:50;;;;;;;;;;;17.50;35.80;;;;;;5056869;28;20277;-71
2021/03/28 04:33:35;;;;;;;;;;;17.50;36.00;;;;;;5050601;28;19915;-72
2021/03/28 04:36:11;;;;;;;;;;;17.50;36.60;;;;;;5056784;28;19939;-72
2021/03/28 04:38:45;;;;;;;;;;;17.50;37.40;;;;;;5056533;28;20342;-72
2021/03/28 04:41:20;;;;;;;;;;;17.40;36.40;;;;;;5056686;28;19920;-71
2021/03/28 04:44:02;;;;;;;;;;;17.20;36.50;;;;;;5048783;28;19916;-72
2021/03/28 04:46:47;;;;;;;;;;;17.10;36.30;;;;;;5057745;28;19908;-71
2021/03/28 04:49:38;;;;;;;;;;;17.10;36.40;;;;;;5057838;28;20262;-73
2021/03/28 04:52:20;;;;;;;;;;;17.00;36.40;;;;;;5058232;28;20000;-71
2021/03/28 04:55:24;;;;;;;;;;;16.90;36.30;;;;;;5057578;28;19958;-73
2021/03/28 04:57:59;;;;;;;;;;;16.80;37.10;;;;;;4977051;28;19910;-72
2021/03/28 05:00:43;;;;;;;;;;;16.70;37.00;;;;;;4976503;28;20320;-71
2021/03/28 05:03:27;;;;;;;;;;;16.70;36.70;;;;;;5028838;28;19988;-74
2021/03/28 05:06:00;;;;;;;;;;;16.60;36.70;;;;;;5058048;28;19905;-70
2021/03/28 05:08:41;;;;;;;;;;;16.50;36.90;;;;;;5056688;28;19912;-70
2021/03/28 05:11:26;;;;;;;;;;;16.40;36.80;;;;;;5056336;28;19944;-71
2021/03/28 05:14:14;;;;;;;;;;;16.40;37.20;;;;;;5056271;28;19909;-71
2021/03/28 05:16:59;;;;;;;;;;;16.30;36.70;;;;;;5039083;28;19909;-71
2021/03/28 05:19:43;;;;;;;;;;;16.30;36.60;;;;;;5054811;28;20334;-70
2021/03/28 05:22:25;;;;;;;;;;;16.20;37.60;;;;;;5057128;28;20348;-70
2021/03/28 05:25:06;;;;;;;;;;;16.10;37.60;;;;;;5033360;28;20003;-70
2021/03/28 05:27:35;;;;;;;;;;;16.00;37.20;;;;;;5055343;28;19971;-70
2021/03/28 05:30:04;;;;;;;;;;;16.00;38.00;;;;;;5052068;28;19909;-70
2021/03/28 05:32:32;;;;;;;;;;;15.90;38.00;;;;;;5053691;28;19916;-71
2021/03/28 05:34:58;;;;;;;;;;;15.80;37.90;;;;;;5054504;28;19972;-72
2021/03/28 05:37:41;;;;;;;;;;;15.70;37.50;;;;;;5056490;28;19998;-70
2021/03/28 05:40:25;;;;;;;;;;;15.70;37.50;;;;;;5053585;28;19909;-71
2021/03/28 05:43:10;;;;;;;;;;;15.70;38.20;;;;;;5055968;28;19909;-70
2021/03/28 05:45:54;;;;;;;;;;;15.70;39.30;;;;;;5054968;28;20322;-73
2021/03/28 05:48:39;;;;;;;;;;;15.70;38.40;;;;;;5054930;28;19913;-71
2021/03/28 05:51:11;;;;;;;;;;;15.70;38.90;;;;;;5055742;28;20231;-70
2021/03/28 05:53:56;;;;;;;;;;;15.80;39.20;;;;;;5054844;28;19995;-73
2021/03/28 05:56:22;;;;;;;;;;;15.80;39.40;;;;;;5053616;28;20030;-71
2021/03/28 05:59:07;;;;;;;;;;;15.60;38.40;;;;;;5056478;28;19908;-72
2021/03/28 06:01:42;;;;;;;;;;;15.60;39.30;;;;;;5056387;28;20427;-71
2021/03/28 06:04:45;;;;;;;;;;;15.60;39.90;;;;;;5055817;28;19912;-71
2021/03/28 06:07:20;;;;;;;;;;;15.50;40.10;;;;;;5054335;28;19943;-71
2021/03/28 06:09:52;;;;;;;;;;;15.40;39.20;;;;;;5055820;28;19935;-71
2021/03/28 06:12:18;;;;;;;;;;;15.30;39.90;;;;;;5054441;28;19958;-71
2021/03/28 06:14:47;;;;;;;;;;;15.30;40.70;;;;;;5054977;28;19912;-71
2021/03/28 06:17:16;;;;;;;;;;;15.20;40.10;;;;;;5055428;28;19916;-71
2021/03/28 06:19:42;;;;;;;;;;;15.20;41.80;;;;;;5052383;28;19909;-71
2021/03/28 06:22:22;;;;;;;;;;;15.10;40.30;;;;;;5054925;28;19913;-72
2021/03/28 06:25:07;;;;;;;;;;;15.00;40.80;;;;;;5054888;28;19943;-71
2021/03/28 06:27:48;;;;;;;;;;;14.90;40.00;;;;;;5055271;28;20254;-71
2021/03/28 06:30:29;;;;;;;;;;;14.80;39.80;;;;;;5055040;28;19915;-72
2021/03/28 06:33:07;;;;;;;;;;;14.80;40.10;;;;;;5052766;28;19916;-71
2021/03/28 06:35:56;;;;;;;;;;;14.70;40.30;;;;;;5052718;28;19913;-71
2021/03/28 06:38:37;;;;;;;;;;;14.60;39.30;;;;;;5036138;28;19952;-71
2021/03/28 06:41:09;;;;;;;;;;;14.60;39.70;;;;;;5055252;28;19916;-71
2021/03/28 06:43:51;;;;;;;;;;;14.50;40.80;;;;;;5054699;28;20000;-72
2021/03/28 06:46:17;;;;;;;;;;;14.40;40.80;;;;;;5054036;28;19913;-71
2021/03/28 06:49:02;;;;;;;;;;;14.30;40.70;;;;;;5054362;28;19916;-71
2021/03/28 06:51:31;;;;;;;;;;;14.30;40.10;;;;;;5053834;28;21144;-71
2021/03/28 06:54:16;;;;;;;;;;;14.40;40.10;;;;;;5053503;28;19924;-72
2021/03/28 06:56:42;;;;;;;;;;;14.30;40.10;;;;;;5055603;28;19920;-73
2021/03/28 06:59:34;;;;;;;;;;;14.40;40.50;;;;;;5055693;28;19908;-71
2021/03/28 07:02:00;;;;;;;;;;;14.40;41.20;;;;;;5036471;28;19912;-71
2021/03/28 07:04:45;;;;;;;;;;;14.50;42.60;;;;;;5055472;28;19909;-72
2021/03/28 07:07:20;;;;;;;;;;;14.40;41.70;;;;;;5054071;28;19921;-71
2021/03/28 07:09:55;;;;;;;;;;;14.20;41.00;;;;;;5054347;28;20249;-71
2021/03/28 07:12:39;;;;;;;;;;;14.30;42.00;;;;;;5052193;28;20257;-71
2021/03/28 07:15:21;;;;;;;;;;;14.20;41.00;;;;;;5036030;28;19913;-71
2021/03/28 07:17:56;;;;;;;;;;;14.00;42.40;;;;;;5037129;28;19916;-71
2021/03/28 07:20:25;;;;;;;;;;;14.00;41.60;;;;;;5055215;28;19924;-72
2021/03/28 07:22:54;;;;;;;;;;;13.90;41.10;;;;;;5053900;28;19935;-71
2021/03/28 07:25:24;;;;;;;;;;;13.90;41.70;;;;;;5055118;28;19915;-71
2021/03/28 07:28:01;;;;;;;;;;;13.90;42.10;;;;;;5057551;28;19982;-71
2021/03/28 07:30:27;;;;;;;;;;;13.80;41.50;;;;;;5048729;28;20251;-72
2021/03/28 07:32:56;;;;;;;;;;;13.80;42.00;;;;;;5038279;28;19991;-71
2021/03/28 07:35:37;;;;;;;;;;;13.80;42.10;;;;;;5057106;28;19982;-72
2021/03/28 07:38:03;;;;;;;;;;;13.90;42.50;;;;;;5057873;28;19912;-71
2021/03/28 07:40:32;;;;;;;;;;;13.90;42.70;;;;;;5056507;28;19909;-71
2021/03/28 07:43:28;;;;;;;;;;;13.90;43.60;;;;;;5040636;28;19962;-71
2021/03/28 07:46:04;;;;;;;;;;;13.80;42.20;;;;;;5039407;28;19916;-71
2021/03/28 07:48:36;;;;;;;;;;;13.80;42.20;;;;;;5040355;28;20390;-72
2021/03/28 07:51:08;;;;;;;;;;;13.70;42.10;;;;;;5057523;28;19999;-72
2021/03/28 07:53:37;;;;;;;;;;;13.70;42.40;;;;;;5059112;28;20007;-72
2021/03/28 07:56:15;;;;;;;;;;;13.60;42.40;;;;;;5054743;28;20342;-71
2021/03/28 07:58:56;;;;;;;;;;;13.60;42.30;;;;;;5056535;28;19909;-71
2021/03/28 08:01:35;;;;;;;;;;;13.60;42.20;;;;;;5056611;28;19934;-72
2021/03/28 08:04:21;;;;;;;;;;;13.50;42.20;;;;;;5056744;28;19912;-72
2021/03/28 08:06:51;;;;;;;;;;;13.40;42.00;;;;;;5027691;28;19979;-72
2021/03/28 08:09:22;;;;;;;;;;;13.30;41.80;;;;;;5056989;28;20296;-72
2021/03/28 08:11:54;;;;;;;;;;;13.30;40.90;;;;;;5056792;28;19912;-71
2021/03/28 08:14:27;;;;;;;;;;;13.30;41.30;;;;;;5058658;28;19920;-72
2021/03/28 08:16:56;;;;;;;;;;;13.30;41.80;;;;;;5054184;28;19908;-73
2021/03/28 08:19:28;;;;;;;;;;;13.20;41.30;;;;;;5057792;28;19935;-72
2021/03/28 08:22:21;;;;;;;;;;;13.10;42.00;;;;;;5053489;28;19909;-71
2021/03/28 08:24:56;;;;;;;;;;;13.10;41.30;;;;;;5020260;28;19971;-72
2021/03/28 08:27:30;;;;;;;;;;;13.10;42.40;;;;;;5056000;28;19939;-71
2021/03/28 08:30:22;;;;;;;;;;;13.00;41.30;;;;;;5058099;28;19913;-72
2021/03/28 08:32:57;;;;;;;;;;;13.00;41.40;;;;;;5041021;28;20349;-72
2021/03/28 08:35:26;;;;;;;;;;;13.00;41.80;;;;;;5054214;28;19952;-72
2021/03/28 08:38:10;;;;;;;;;;;13.00;44.30;;;;;;5055841;28;19909;-71
2021/03/28 08:40:39;;;;;;;;;;;13.00;43.20;;;;;;5056924;28;19920;-74
2021/03/28 08:43:17;;;;;;;;;;;12.90;42.40;;;;;;5057703;28;19912;-72
2021/03/28 08:46:01;;;;;;;;;;;12.70;43.20;;;;;;5055319;28;19939;-72
2021/03/28 08:48:37;;;;;;;;;;;12.70;43.10;;;;;;5056820;28;19919;-73
2021/03/28 08:51:23;;;;;;;;;;;12.70;42.30;;;;;;5057916;28;19920;-73
2021/03/28 08:53:58;;;;;;;;;;;12.60;42.20;;;;;;5056205;28;19962;-72
2021/03/28 08:56:30;;;;;;;;;;;12.60;43.30;;;;;;5058261;28;19915;-72
2021/03/28 08:59:09;;;;;;;;;;;12.50;43.50;;;;;;5054768;28;19986;-72
2021/03/28 09:01:47;;;;;;;;;;;12.50;43.20;;;;;;5055100;28;19999;-72
2021/03/28 09:04:22;;;;;;;;;;;12.50;43.80;;;;;;5055428;28;19909;-71
2021/03/28 09:06:50;;;;;;;;;;;12.40;43.60;;;;;;5056874;28;19999;-72
2021/03/28 09:09:34;;;;;;;;;;;12.30;43.10;;;;;;5054449;28;20249;-72
2021/03/28 09:12:08;;;;;;;;;;;12.30;43.00;;;;;;5040371;28;20063;-72
2021/03/28 09:14:53;;;;;;;;;;;12.20;43.00;;;;;;5036601;28;19909;-72
2021/03/28 09:17:38;;;;;;;;;;;12.40;45.30;;;;;;5054493;28;20258;-73
2021/03/28 09:20:22;;;;;;;;;;;12.30;43.80;;;;;;5056645;28;19908;-72
2021/03/28 09:22:51;;;;;;;;;;;12.20;43.90;;;;;;5057461;28;19908;-72
2021/03/28 09:25:22;;;;;;;;;;;12.30;46.00;;;;;;5055251;28;19917;-72
2021/03/28 09:28:07;;;;;;;;;;;12.30;45.40;;;;;;5037989;28;19983;-72
2021/03/28 09:30:51;;;;;;;;;;;12.20;45.90;;;;;;5056249;28;19958;-72
2021/03/28 09:33:36;;;;;;;;;;;12.20;45.60;;;;;;5056459;28;19909;-72
2021/03/28 09:36:14;;;;;;;;;;;12.10;45.50;;;;;;5055741;28;19912;-72
2021/03/28 09:38:52;;;;;;;;;;;12.20;47.30;;;;;;5056478;28;20003;-72
2021/03/28 09:41:18;;;;;;;;;;;12.30;47.90;;;;;;5055287;28;19908;-71
2021/03/28 09:44:01;;;;;;;;;;;12.30;46.90;;;;;;5038252;28;19912;-72
2021/03/28 09:46:32;;;;;;;;;;;12.30;46.50;;;;;;5053383;28;19913;-71
2021/03/28 09:49:17;;;;;;;;;;;12.20;47.00;;;;;;5055697;28;19916;-72
2021/03/28 09:51:54;;;;;;;;;;;12.40;48.00;;;;;;5054681;28;19942;-72
2021/03/28 09:54:34;;;;;;;;;;;12.40;47.70;;;;;;5053861;28;20361;-72
2021/03/28 09:57:00;;;;;;;;;;;12.30;47.60;;;;;;5054929;28;19915;-72
2021/03/28 09:59:34;;;;;;;;;;;12.10;46.40;;;;;;5057069;28;19909;-72
2021/03/28 10:02:09;;;;;;;;;;;12.10;47.50;;;;;;5053312;28;19935;-71
2021/03/28 10:04:38;;;;;;;;;;;12.20;48.20;;;;;;5054823;28;19963;-72
2021/03/28 10:07:05;;;;;;;;;;;12.20;47.80;;;;;;5055011;28;19972;-72
2021/03/28 10:09:49;;;;;;;;;;;12.10;48.00;;;;;;5038141;28;19909;-72
2021/03/28 10:12:20;;;;;;;;;;;12.20;48.00;;;;;;5054409;28;19962;-72
2021/03/28 10:14:46;;;;;;;;;;;12.30;48.70;;;;;;5055699;28;19909;-72
2021/03/28 10:17:38;;;;;;;;;;;12.20;47.90;;;;;;5054994;28;20365;-72
2021/03/28 10:20:23;;;;;;;;;;;12.20;47.70;;;;;;5046526;28;19909;-72
2021/03/28 10:22:51;;;;;;;;;;;12.20;47.90;;;;;;5054562;28;19947;-72
2021/03/28 10:25:17;;;;;;;;;;;12.20;48.60;;;;;;5054649;28;19971;-72
2021/03/28 10:27:56;;;;;;;;;;;12.30;49.00;;;;;;5054431;28;20307;-73
2021/03/28 10:30:28;;;;;;;;;;;12.10;47.80;;;;;;5053746;28;20304;-73
2021/03/28 10:33:21;;;;;;;;;;;12.20;49.10;;;;;;5053362;28;20008;-72
2021/03/28 10:35:56;;;;;;;;;;;12.40;49.40;;;;;;5054666;28;19913;-72
2021/03/28 10:38:22;;;;;;;;;;;12.40;49.10;;;;;;5054455;28;19936;-72
2021/03/28 10:40:53;;;;;;;;;;;12.30;48.90;;;;;;5057564;28;19940;-73
2021/03/28 10:43:22;;;;;;;;;;;12.10;48.30;;;;;;5038328;28;19958;-72
2021/03/28 10:46:06;;;;;;;;;;;12.10;48.50;;;;;;5056780;28;20258;-74
2021/03/28 10:48:51;;;;;;;;;;;12.10;49.50;;;;;;5053285;28;19917;-72
2021/03/28 10:51:26;;;;;;;;;;;12.00;47.80;;;;;;5053621;28;19916;-73
2021/03/28 10:54:01;;;;;;;;;;;12.00;48.60;;;;;;5054073;28;19928;-72
2021/03/28 10:56:46;;;;;;;;;;;11.90;48.20;;;;;;5044950;28;19912;-72
2021/03/28 10:59:35;;;;;;;;;;;11.80;47.70;;;;;;5054566;28;20449;-72
2021/03/28 11:02:19;;;;;;;;;;;11.70;48.50;;;;;;5052541;28;20326;-72
2021/03/28 11:05:03;;;;;;;;;;;11.90;48.80;;;;;;5055154;28;19912;-72
2021/03/28 11:07:51;;;;;;;;;;;11.70;48.00;;;;;;5054331;28;19921;-73
2021/03/28 11:10:43;;;;;;;;;;;11.70;47.90;;;;;;5037464;28;19920;-73
2021/03/28 11:13:24;;;;;;;;;;;11.70;48.20;;;;;;5052753;28;19908;-72
2021/03/28 11:15:56;;;;;;;;;;;11.70;48.60;;;;;;5052057;28;19908;-73
2021/03/28 11:18:41;;;;;;;;;;;11.70;48.70;;;;;;5052726;28;19985;-72
2021/03/28 11:21:25;;;;;;;;;;;11.50;48.00;;;;;;5053825;28;19909;-73
2021/03/28 11:24:11;;;;;;;;;;;11.50;48.20;;;;;;5055639;28;19991;-74
2021/03/28 11:26:57;;;;;;;;;;;11.50;48.60;;;;;;5054744;28;19913;-73
2021/03/28 11:29:36;;;;;;;;;;;11.70;49.50;;;;;;5041131;28;19920;-72
2021/03/28 11:32:03;;;;;;;;;;;11.80;49.40;;;;;;5053934;28;19909;-73
2021/03/28 11:34:32;;;;;;;;;;;11.70;49.00;;;;;;5052722;28;19916;-72
2021/03/28 11:36:58;;;;;;;;;;;11.70;48.90;;;;;;5036057;28;19912;-72
2021/03/28 11:39:26;;;;;;;;;;;11.70;49.50;;;;;;5054194;28;19967;-74
2021/03/28 11:42:14;;;;;;;;;;;11.80;49.10;;;;;;5056386;28;19905;-72
2021/03/28 11:45:00;;;;;;;;;;;11.80;49.60;;;;;;5055537;28;19908;-73
2021/03/28 11:47:46;;;;;;;;;;;11.80;49.30;;;;;;5001321;28;20331;-72
2021/03/28 11:50:15;;;;;;;;;;;11.80;49.50;;;;;;5037795;28;19967;-72
2021/03/28 11:52:59;;;;;;;;;;;11.70;49.50;;;;;;5053272;28;19948;-73
2021/03/28 11:55:25;;;;;;;;;;;11.50;48.70;;;;;;5054589;28;19917;-72
2021/03/28 11:58:10;;;;;;;;;;;11.50;50.30;;;;;;5052888;28;19909;-72
2021/03/28 12:00:40;;;;;;;;;;;11.60;49.90;;;;;;5037672;28;19932;-72
2021/03/28 12:03:16;;;;;;;;;;;11.60;50.10;;;;;;5054722;28;19919;-72
2021/03/28 12:06:00;;;;;;;;;;;11.60;50.60;;;;;;5054608;28;20043;-72
2021/03/28 12:08:27;;;;;;;;;;;11.70;50.80;;;;;;5054300;28;20338;-72
2021/03/28 12:10:54;;;;;;;;;;;11.60;50.60;;;;;;5037790;28;19909;-73
2021/03/28 12:13:23;;;;;;;;;;;11.60;50.50;;;;;;5055290;28;19913;-73
2021/03/28 12:15:49;;;;;;;;;;;11.50;50.90;;;;;;5057918;28;19909;-72
2021/03/28 12:21:07;;;;;;;;;;;11.40;50.40;;;;;;5056846;28;20008;-73
2021/03/28 12:23:49;;;;;;;;;;;11.20;50.40;;;;;;5041938;28;19912;-72
2021/03/28 12:26:26;;;;;;;;;;;11.20;50.40;;;;;;5039242;28;19917;-72
2021/03/28 12:28:57;;;;;;;;;;;11.20;51.00;;;;;;5058489;28;19909;-72
2021/03/28 12:31:40;;;;;;;;;;;11.40;51.50;;;;;;5039841;28;19909;-73
2021/03/28 12:34:21;;;;;;;;;;;11.40;51.40;;;;;;5058684;28;19919;-72
2021/03/28 12:37:02;;;;;;;;;;;11.30;51.00;;;;;;5057537;28;19913;-72
2021/03/28 12:39:37;;;;;;;;;;;11.30;51.10;;;;;;5059734;28;19908;-72
2021/03/28 12:42:21;;;;;;;;;;;11.40;51.80;;;;;;5059411;28;20319;-72
2021/03/28 12:45:08;;;;;;;;;;;11.40;52.00;;;;;;5055658;28;20218;-73
2021/03/28 12:47:49;;;;;;;;;;;11.30;52.20;;;;;;5047471;28;19939;-72
2021/03/28 12:50:15;;;;;;;;;;;11.30;51.30;;;;;;5057765;28;20331;-73
2021/03/28 12:53:02;;;;;;;;;;;11.30;51.70;;;;;;5056764;28;20255;-73
2021/03/28 12:55:28;;;;;;;;;;;11.20;51.10;;;;;;5039534;28;19999;-72
2021/03/28 12:58:10;;;;;;;;;;;11.20;50.90;;;;;;5049017;28;19904;-73
2021/03/28 13:00:39;;;;;;;;;;;11.10;50.60;;;;;;5056765;28;20012;-73
2021/03/28 13:03:24;;;;;;;;;;;11.00;51.00;;;;;;5051793;28;20003;-72
2021/03/28 13:06:02;;;;;;;;;;;11.00;51.00;;;;;;5056791;28;19931;-72
2021/03/28 13:08:32;;;;;;;;;;;11.10;51.30;;;;;;5055033;28;19955;-74
2021/03/28 13:11:04;;;;;;;;;;;11.10;51.40;;;;;;5055832;28;20457;-73
2021/03/28 13:13:37;;;;;;;;;;;11.20;51.70;;;;;;5056333;28;20327;-72
2021/03/28 13:16:03;;;;;;;;;;;11.20;51.40;;;;;;5054980;28;19912;-72
2021/03/28 13:18:44;;;;;;;;;;;11.20;51.70;;;;;;5045104;28;19917;-72
2021/03/28 13:21:28;;;;;;;;;;;11.20;51.60;;;;;;5056443;28;19974;-73
2021/03/28 13:24:05;;;;;;;;;;;11.20;51.40;;;;;;5035501;28;20007;-73
2021/03/28 13:26:33;;;;;;;;;;;11.10;51.70;;;;;;5036881;28;19912;-73
2021/03/28 13:29:05;;;;;;;;;;;11.10;51.70;;;;;;5055098;28;19916;-73
2021/03/28 13:31:33;;;;;;;;;;;11.00;51.20;;;;;;5055684;28;19913;-72
2021/03/28 13:34:05;;;;;;;;;;;11.00;52.30;;;;;;5037723;28;19913;-73
2021/03/28 13:36:36;;;;;;;;;;;11.00;52.20;;;;;;5038771;28;19963;-72
2021/03/28 13:39:02;;;;;;;;;;;11.00;52.30;;;;;;5056181;28;19915;-72
2021/03/28 13:41:31;;;;;;;;;;;10.90;52.20;;;;;;5039062;28;19976;-72
2021/03/28 13:44:04;;;;;;;;;;;10.90;52.20;;;;;;5037548;28;19935;-72
2021/03/28 13:46:30;;;;;;;;;;;11.00;52.40;;;;;;5038887;28;19917;-72
2021/03/28 13:49:04;;;;;;;;;;;10.90;52.30;;;;;;5055937;28;19916;-73
2021/03/28 13:51:31;;;;;;;;;;;10.90;52.50;;;;;;5054793;28;20296;-73
2021/03/28 13:54:02;;;;;;;;;;;10.90;52.40;;;;;;5054720;28;19984;-72
2021/03/28 13:56:39;;;;;;;;;;;10.90;52.70;;;;;;5056007;28;19916;-73
2021/03/28 13:59:14;;;;;;;;;;;10.90;52.70;;;;;;5056765;28;19908;-72
2021/03/28 14:01:40;;;;;;;;;;;10.90;52.70;;;;;;5056644;28;20256;-74
2021/03/28 14:04:18;;;;;;;;;;;10.90;52.80;;;;;;5054327;28;20008;-72
2021/03/28 14:06:45;;;;;;;;;;;10.90;53.10;;;;;;5054318;28;19912;-72
2021/03/28 14:09:13;;;;;;;;;;;10.80;52.80;;;;;;5056106;28;19935;-74
2021/03/28 14:11:53;;;;;;;;;;;10.80;53.50;;;;;;5055694;28;19916;-73
2021/03/28 14:14:22;;;;;;;;;;;10.80;53.10;;;;;;5055366;28;19954;-72
2021/03/28 14:16:49;;;;;;;;;;;10.80;52.70;;;;;;5052526;28;20288;-73
2021/03/28 14:19:21;;;;;;;;;;;10.70;52.30;;;;;;5049572;28;19913;-73
2021/03/28 14:21:47;;;;;;;;;;;10.70;53.30;;;;;;5055396;28;20401;-73
2021/03/28 14:24:17;;;;;;;;;;;10.80;53.30;;;;;;5055086;28;20341;-73
2021/03/28 14:26:43;;;;;;;;;;;10.80;53.00;;;;;;5058116;28;19922;-73
2021/03/28 14:29:18;;;;;;;;;;;10.80;53.10;;;;;;5057090;28;20326;-74
2021/03/28 14:31:46;;;;;;;;;;;10.90;52.70;;;;;;5061351;28;19952;-74
2021/03/28 14:34:35;;;;;;;;;;;10.90;52.80;;;;;;5059357;28;20327;-73
2021/03/28 14:37:39;;;;;;;;;;;10.90;52.50;;;;;;5027202;28;19912;-73
2021/03/28 14:40:14;;;;;;;;;;;10.80;52.10;;;;;;5034019;28;19913;-73
2021/03/28 14:42:49;;;;;;;;;;;10.90;52.30;;;;;;5032759;28;19905;-73
2021/03/28 14:45:22;;;;;;;;;;;11.00;52.60;;;;;;5028300;28;19916;-73
2021/03/28 14:47:57;;;;;;;;;;;10.90;52.00;;;;;;5052997;28;19971;-73
2021/03/28 14:50:26;;;;;;;;;;;10.80;51.80;;;;;;5055799;28;20270;-74
2021/03/28 14:53:10;;;;;;;;;;;10.70;51.80;;;;;;5056116;28;19931;-74
2021/03/28 14:55:42;;;;;;;;;;;10.90;52.70;;;;;;5039010;28;19975;-73
2021/03/28 14:58:21;;;;;;;;;;;11.00;51.70;;;;;;5038543;28;19972;-73
2021/03/28 15:00:53;;;;;;;;;;;10.90;51.70;;;;;;5056067;28;19991;-73
2021/03/28 15:03:30;;;;;;;;;;;11.00;51.80;;;;;;5055022;28;19912;-74
2021/03/28 15:06:14;;;;;;;;;;;11.10;52.00;;;;;;5055761;28;20346;-74
2021/03/28 15:08:59;;;;;;;;;;;11.10;51.40;;;;;;5054224;28;20236;-73
2021/03/28 15:11:34;;;;;;;;;;;11.30;52.00;;;;;;5054399;28;19913;-74
2021/03/28 15:14:06;;;;;;;;;;;11.40;51.70;;;;;;5056285;28;20234;-74